sensor_id;sensor_type;location;lat;lon;timestamp;temperature;humidity
14170;DHT22;63889;50.596;8.690;2024-02-26T00:01:41;6.20;99.90
14170;DHT22;63889;50.596;8.690;2024-02-26T00:04:09;6.20;99.90
14170;DHT22;63889;50.596;8.690;2024-02-26T00:06:34;6.20;99.90
14170;DHT22;63889;50.596;8.690;2024-02-26T00:09:00;6.10;99.90
14170;DHT22;63889;50.596;8.690;2024-02-26T00:11:26;6.10;99.90
14170;DHT22;63889;50.596;8.690;2024-02-26T00:13:51;6.10;99.90
14170;DHT22;63889;50.596;8.690;2024-02-26T00:16:17;6.20;99.90
14170;DHT22;63889;50.596;8.690;2024-02-26T00:18:42;6.20;99.90
14170;DHT22;63889;50.596;8.690;2024-02-26T00:21:08;6.10;99.90
14170;DHT22;63889;50.596;8.690;2024-02-26T00:23:34;6.20;99.90
14170;DHT22;63889;50.596;8.690;2024-02-26T00:25:59;6.20;99.90
14170;DHT22;63889;50.596;8.690;2024-02-26T00:28:25;6.20;99.90
14170;DHT22;63889;50.596;8.690;2024-02-26T00:30:50;6.20;99.90
14170;DHT22;63889;50.596;8.690;2024-02-26T00:33:21;6.10;99.90
14170;DHT22;63889;50.596;8.690;2024-02-26T00:35:47;6.10;99.90
14170;DHT22;63889;50.596;8.690;2024-02-26T00:38:12;6.20;99.90
14170;DHT22;63889;50.596;8.690;2024-02-26T00:40:38;6.20;99.90
14170;DHT22;63889;50.596;8.690;2024-02-26T00:43:03;6.20;99.90
14170;DHT22;63889;50.596;8.690;2024-02-26T00:45:29;6.10;99.90
14170;DHT22;63889;50.596;8.690;2024-02-26T00:47:54;6.20;99.90
14170;DHT22;63889;50.596;8.690;2024-02-26T00:50:21;6.10;99.90
14170;DHT22;63889;50.596;8.690;2024-02-26T00:52:46;6.30;99.90
14170;DHT22;63889;50.596;8.690;2024-02-26T00:55:12;6.30;99.90
14170;DHT22;63889;50.596;8.690;2024-02-26T00:57:37;6.30;99.90
14170;DHT22;63889;50.596;8.690;2024-02-26T01:00:03;6.20;99.90
14170;DHT22;63889;50.596;8.690;2024-02-26T01:02:29;6.20;99.90
14170;DHT22;63889;50.596;8.690;2024-02-26T01:04:55;6.30;99.90
14170;DHT22;63889;50.596;8.690;2024-02-26T01:07:20;6.20;99.90
14170;DHT22;63889;50.596;8.690;2024-02-26T01:09:46;6.20;99.90
14170;DHT22;63889;50.596;8.690;2024-02-26T01:12:11;6.10;99.90
14170;DHT22;63889;50.596;8.690;2024-02-26T01:14:37;6.10;99.90
14170;DHT22;63889;50.596;8.690;2024-02-26T01:17:03;6.20;99.90
14170;DHT22;63889;50.596;8.690;2024-02-26T01:19:28;6.30;99.90
14170;DHT22;63889;50.596;8.690;2024-02-26T01:21:54;6.20;99.90
14170;DHT22;63889;50.596;8.690;2024-02-26T01:24:20;6.20;99.90
14170;DHT22;63889;50.596;8.690;2024-02-26T01:26:45;6.20;99.90
14170;DHT22;63889;50.596;8.690;2024-02-26T01:29:11;6.20;99.90
14170;DHT22;63889;50.596;8.690;2024-02-26T01:31:36;6.20;99.90
14170;DHT22;63889;50.596;8.690;2024-02-26T01:34:02;6.20;99.90
14170;DHT22;63889;50.596;8.690;2024-02-26T01:36:27;6.10;99.90
14170;DHT22;63889;50.596;8.690;2024-02-26T01:38:53;6.10;99.90
14170;DHT22;63889;50.596;8.690;2024-02-26T01:41:18;6.00;99.90
14170;DHT22;63889;50.596;8.690;2024-02-26T01:43:44;6.10;99.90
14170;DHT22;63889;50.596;8.690;2024-02-26T01:46:12;6.10;99.90
14170;DHT22;63889;50.596;8.690;2024-02-26T01:48:42;6.10;99.90
14170;DHT22;63889;50.596;8.690;2024-02-26T01:51:08;6.10;99.90
14170;DHT22;63889;50.596;8.690;2024-02-26T01:53:34;6.10;99.90
14170;DHT22;63889;50.596;8.690;2024-02-26T01:56:00;6.10;99.90
14170;DHT22;63889;50.596;8.690;2024-02-26T01:58:26;6.20;99.90
14170;DHT22;63889;50.596;8.690;2024-02-26T02:00:51;6.10;99.90
14170;DHT22;63889;50.596;8.690;2024-02-26T02:03:17;6.10;99.90
14170;DHT22;63889;50.596;8.690;2024-02-26T02:05:43;6.10;99.90
14170;DHT22;63889;50.596;8.690;2024-02-26T02:08:10;6.20;99.90
14170;DHT22;63889;50.596;8.690;2024-02-26T02:10:38;6.30;99.90
14170;DHT22;63889;50.596;8.690;2024-02-26T02:13:04;6.20;99.90
14170;DHT22;63889;50.596;8.690;2024-02-26T02:15:29;6.20;99.90
14170;DHT22;63889;50.596;8.690;2024-02-26T02:17:55;6.30;99.90
14170;DHT22;63889;50.596;8.690;2024-02-26T02:20:47;6.30;99.90
14170;DHT22;63889;50.596;8.690;2024-02-26T02:23:13;6.40;99.90
14170;DHT22;63889;50.596;8.690;2024-02-26T02:25:39;6.30;99.90
14170;DHT22;63889;50.596;8.690;2024-02-26T02:28:05;6.20;99.90
14170;DHT22;63889;50.596;8.690;2024-02-26T02:30:31;6.20;99.90
14170;DHT22;63889;50.596;8.690;2024-02-26T02:32:58;6.10;99.90
14170;DHT22;63889;50.596;8.690;2024-02-26T02:35:24;6.10;99.90
14170;DHT22;63889;50.596;8.690;2024-02-26T02:37:52;6.10;99.90
14170;DHT22;63889;50.596;8.690;2024-02-26T02:40:17;6.10;99.90
14170;DHT22;63889;50.596;8.690;2024-02-26T02:42:43;6.00;99.90
14170;DHT22;63889;50.596;8.690;2024-02-26T02:45:09;6.20;99.90
14170;DHT22;63889;50.596;8.690;2024-02-26T02:47:38;6.30;99.90
14170;DHT22;63889;50.596;8.690;2024-02-26T02:50:03;6.30;99.90
14170;DHT22;63889;50.596;8.690;2024-02-26T02:52:29;6.20;99.90
14170;DHT22;63889;50.596;8.690;2024-02-26T02:54:55;6.20;99.90
14170;DHT22;63889;50.596;8.690;2024-02-26T02:57:20;6.20;99.90
14170;DHT22;63889;50.596;8.690;2024-02-26T02:59:46;6.20;99.90
14170;DHT22;63889;50.596;8.690;2024-02-26T03:02:12;6.20;99.90
14170;DHT22;63889;50.596;8.690;2024-02-26T03:04:37;6.10;99.90
14170;DHT22;63889;50.596;8.690;2024-02-26T03:07:03;6.10;99.90
14170;DHT22;63889;50.596;8.690;2024-02-26T03:09:29;6.30;99.90
14170;DHT22;63889;50.596;8.690;2024-02-26T03:11:54;6.10;99.90
14170;DHT22;63889;50.596;8.690;2024-02-26T03:14:20;6.20;99.90
14170;DHT22;63889;50.596;8.690;2024-02-26T03:16:45;6.20;99.90
14170;DHT22;63889;50.596;8.690;2024-02-26T03:19:14;6.30;99.90
14170;DHT22;63889;50.596;8.690;2024-02-26T03:21:40;6.40;99.90
14170;DHT22;63889;50.596;8.690;2024-02-26T03:24:06;6.30;99.90
14170;DHT22;63889;50.596;8.690;2024-02-26T03:26:34;6.30;99.90
14170;DHT22;63889;50.596;8.690;2024-02-26T03:28:59;6.30;99.90
14170;DHT22;63889;50.596;8.690;2024-02-26T03:31:26;6.40;99.90
14170;DHT22;63889;50.596;8.690;2024-02-26T03:33:52;6.30;99.90
14170;DHT22;63889;50.596;8.690;2024-02-26T03:36:18;6.30;99.90
14170;DHT22;63889;50.596;8.690;2024-02-26T03:38:43;6.40;99.90
14170;DHT22;63889;50.596;8.690;2024-02-26T03:41:09;6.30;99.90
14170;DHT22;63889;50.596;8.690;2024-02-26T03:43:34;6.40;99.90
14170;DHT22;63889;50.596;8.690;2024-02-26T03:46:00;6.50;99.90
14170;DHT22;63889;50.596;8.690;2024-02-26T03:48:29;6.40;99.90
14170;DHT22;63889;50.596;8.690;2024-02-26T03:50:54;6.30;99.90
14170;DHT22;63889;50.596;8.690;2024-02-26T03:53:20;6.30;99.90
14170;DHT22;63889;50.596;8.690;2024-02-26T03:55:45;6.40;99.90
14170;DHT22;63889;50.596;8.690;2024-02-26T03:58:12;6.30;99.90
14170;DHT22;63889;50.596;8.690;2024-02-26T04:00:38;6.30;99.90
14170;DHT22;63889;50.596;8.690;2024-02-26T04:03:03;6.20;99.90
14170;DHT22;63889;50.596;8.690;2024-02-26T04:05:29;6.30;99.90
14170;DHT22;63889;50.596;8.690;2024-02-26T04:07:54;6.40;99.90
14170;DHT22;63889;50.596;8.690;2024-02-26T04:10:20;6.20;99.90
14170;DHT22;63889;50.596;8.690;2024-02-26T04:12:45;6.30;99.90
14170;DHT22;63889;50.596;8.690;2024-02-26T04:15:12;6.30;99.90
14170;DHT22;63889;50.596;8.690;2024-02-26T04:17:38;6.30;99.90
14170;DHT22;63889;50.596;8.690;2024-02-26T04:20:17;6.40;99.90
14170;DHT22;63889;50.596;8.690;2024-02-26T04:22:43;6.50;99.90
14170;DHT22;63889;50.596;8.690;2024-02-26T04:25:08;6.60;99.90
14170;DHT22;63889;50.596;8.690;2024-02-26T04:27:34;6.50;99.90
14170;DHT22;63889;50.596;8.690;2024-02-26T04:30:00;6.30;99.90
14170;DHT22;63889;50.596;8.690;2024-02-26T04:32:25;6.30;99.90
14170;DHT22;63889;50.596;8.690;2024-02-26T04:34:50;6.40;99.90
14170;DHT22;63889;50.596;8.690;2024-02-26T04:37:16;6.40;99.90
14170;DHT22;63889;50.596;8.690;2024-02-26T04:39:42;6.40;99.90
14170;DHT22;63889;50.596;8.690;2024-02-26T04:42:07;6.50;99.90
14170;DHT22;63889;50.596;8.690;2024-02-26T04:44:33;6.30;99.90
14170;DHT22;63889;50.596;8.690;2024-02-26T04:46:58;6.40;99.90
14170;DHT22;63889;50.596;8.690;2024-02-26T04:49:24;6.50;99.90
14170;DHT22;63889;50.596;8.690;2024-02-26T04:51:49;6.60;99.90
14170;DHT22;63889;50.596;8.690;2024-02-26T04:54:15;6.60;99.90
14170;DHT22;63889;50.596;8.690;2024-02-26T04:56:41;6.60;99.90
14170;DHT22;63889;50.596;8.690;2024-02-26T04:59:16;6.60;99.90
14170;DHT22;63889;50.596;8.690;2024-02-26T05:01:42;6.60;99.90
14170;DHT22;63889;50.596;8.690;2024-02-26T05:04:07;6.60;99.90
14170;DHT22;63889;50.596;8.690;2024-02-26T05:06:33;6.60;99.90
14170;DHT22;63889;50.596;8.690;2024-02-26T05:08:58;6.60;99.90
14170;DHT22;63889;50.596;8.690;2024-02-26T05:11:24;6.60;99.90
14170;DHT22;63889;50.596;8.690;2024-02-26T05:13:49;6.60;99.90
14170;DHT22;63889;50.596;8.690;2024-02-26T05:16:17;6.60;99.90
14170;DHT22;63889;50.596;8.690;2024-02-26T05:18:42;6.60;99.90
14170;DHT22;63889;50.596;8.690;2024-02-26T05:21:08;6.60;99.90
14170;DHT22;63889;50.596;8.690;2024-02-26T05:23:33;6.60;99.90
14170;DHT22;63889;50.596;8.690;2024-02-26T05:25:59;6.60;99.90
14170;DHT22;63889;50.596;8.690;2024-02-26T05:28:24;6.50;99.90
14170;DHT22;63889;50.596;8.690;2024-02-26T05:30:50;6.50;99.90
14170;DHT22;63889;50.596;8.690;2024-02-26T05:33:16;6.60;99.90
14170;DHT22;63889;50.596;8.690;2024-02-26T05:35:41;6.60;99.90
14170;DHT22;63889;50.596;8.690;2024-02-26T05:38:07;6.70;99.90
14170;DHT22;63889;50.596;8.690;2024-02-26T05:40:32;6.70;99.90
14170;DHT22;63889;50.596;8.690;2024-02-26T05:42:59;6.60;99.90
14170;DHT22;63889;50.596;8.690;2024-02-26T05:45:25;6.60;99.90
14170;DHT22;63889;50.596;8.690;2024-02-26T05:47:53;6.60;99.90
14170;DHT22;63889;50.596;8.690;2024-02-26T05:50:19;6.60;99.90
14170;DHT22;63889;50.596;8.690;2024-02-26T05:52:44;6.60;99.90
14170;DHT22;63889;50.596;8.690;2024-02-26T05:55:10;6.50;99.90
14170;DHT22;63889;50.596;8.690;2024-02-26T05:57:36;6.60;99.90
14170;DHT22;63889;50.596;8.690;2024-02-26T06:00:01;6.60;99.90
14170;DHT22;63889;50.596;8.690;2024-02-26T06:02:32;6.60;99.90
14170;DHT22;63889;50.596;8.690;2024-02-26T06:04:58;6.60;99.90
14170;DHT22;63889;50.596;8.690;2024-02-26T06:07:24;6.70;99.90
14170;DHT22;63889;50.596;8.690;2024-02-26T06:09:50;6.60;99.90
14170;DHT22;63889;50.596;8.690;2024-02-26T06:12:27;6.70;99.90
14170;DHT22;63889;50.596;8.690;2024-02-26T06:14:54;6.70;99.90
14170;DHT22;63889;50.596;8.690;2024-02-26T06:17:28;6.70;99.90
14170;DHT22;63889;50.596;8.690;2024-02-26T06:19:54;6.70;99.90
14170;DHT22;63889;50.596;8.690;2024-02-26T06:22:20;6.70;99.90
14170;DHT22;63889;50.596;8.690;2024-02-26T06:24:45;6.70;99.90
14170;DHT22;63889;50.596;8.690;2024-02-26T06:27:11;6.60;99.90
14170;DHT22;63889;50.596;8.690;2024-02-26T06:29:36;6.60;99.90
14170;DHT22;63889;50.596;8.690;2024-02-26T06:32:02;6.60;99.90
14170;DHT22;63889;50.596;8.690;2024-02-26T06:34:27;6.70;99.90
14170;DHT22;63889;50.596;8.690;2024-02-26T06:36:53;6.70;99.90
14170;DHT22;63889;50.596;8.690;2024-02-26T06:39:18;6.70;99.90
14170;DHT22;63889;50.596;8.690;2024-02-26T06:41:44;6.70;99.90
14170;DHT22;63889;50.596;8.690;2024-02-26T06:44:12;6.70;99.90
14170;DHT22;63889;50.596;8.690;2024-02-26T06:46:38;6.70;99.90
14170;DHT22;63889;50.596;8.690;2024-02-26T06:49:03;6.80;99.90
14170;DHT22;63889;50.596;8.690;2024-02-26T06:51:29;6.80;99.90
14170;DHT22;63889;50.596;8.690;2024-02-26T06:53:54;6.80;99.90
14170;DHT22;63889;50.596;8.690;2024-02-26T06:56:20;6.80;99.90
14170;DHT22;63889;50.596;8.690;2024-02-26T06:58:45;6.80;99.90
14170;DHT22;63889;50.596;8.690;2024-02-26T07:01:12;6.80;99.90
14170;DHT22;63889;50.596;8.690;2024-02-26T07:03:39;6.70;99.90
14170;DHT22;63889;50.596;8.690;2024-02-26T07:06:05;6.70;99.90
14170;DHT22;63889;50.596;8.690;2024-02-26T07:08:30;6.80;99.90
14170;DHT22;63889;50.596;8.690;2024-02-26T07:10:56;6.80;99.90
14170;DHT22;63889;50.596;8.690;2024-02-26T07:13:21;6.80;99.90
14170;DHT22;63889;50.596;8.690;2024-02-26T07:15:47;6.80;99.90
14170;DHT22;63889;50.596;8.690;2024-02-26T07:18:21;6.80;99.90
14170;DHT22;63889;50.596;8.690;2024-02-26T07:20:46;6.80;99.90
14170;DHT22;63889;50.596;8.690;2024-02-26T07:23:12;6.80;99.90
14170;DHT22;63889;50.596;8.690;2024-02-26T07:25:38;6.90;99.90
14170;DHT22;63889;50.596;8.690;2024-02-26T07:28:04;6.90;99.90
14170;DHT22;63889;50.596;8.690;2024-02-26T07:30:29;6.90;99.90
14170;DHT22;63889;50.596;8.690;2024-02-26T07:32:55;6.80;99.90
14170;DHT22;63889;50.596;8.690;2024-02-26T07:35:20;6.90;99.90
14170;DHT22;63889;50.596;8.690;2024-02-26T07:37:48;6.90;99.90
14170;DHT22;63889;50.596;8.690;2024-02-26T07:40:15;6.90;99.90
14170;DHT22;63889;50.596;8.690;2024-02-26T07:42:40;6.90;99.90
14170;DHT22;63889;50.596;8.690;2024-02-26T07:45:06;6.90;99.90
14170;DHT22;63889;50.596;8.690;2024-02-26T07:47:34;6.90;99.90
14170;DHT22;63889;50.596;8.690;2024-02-26T07:50:01;6.90;99.90
14170;DHT22;63889;50.596;8.690;2024-02-26T07:52:26;6.90;99.90
14170;DHT22;63889;50.596;8.690;2024-02-26T07:54:52;6.90;99.90
14170;DHT22;63889;50.596;8.690;2024-02-26T07:57:17;6.90;99.90
14170;DHT22;63889;50.596;8.690;2024-02-26T07:59:43;6.90;99.90
14170;DHT22;63889;50.596;8.690;2024-02-26T08:02:10;6.90;99.90
14170;DHT22;63889;50.596;8.690;2024-02-26T08:04:35;6.90;99.90
14170;DHT22;63889;50.596;8.690;2024-02-26T08:07:01;7.00;99.90
14170;DHT22;63889;50.596;8.690;2024-02-26T08:09:26;7.00;99.90
14170;DHT22;63889;50.596;8.690;2024-02-26T08:11:52;7.00;99.90
14170;DHT22;63889;50.596;8.690;2024-02-26T08:14:17;7.00;99.90
14170;DHT22;63889;50.596;8.690;2024-02-26T08:16:43;7.00;99.90
14170;DHT22;63889;50.596;8.690;2024-02-26T08:19:08;7.00;99.90
14170;DHT22;63889;50.596;8.690;2024-02-26T08:21:35;6.90;99.90
14170;DHT22;63889;50.596;8.690;2024-02-26T08:24:02;6.90;99.90
14170;DHT22;63889;50.596;8.690;2024-02-26T08:26:27;6.90;99.90
14170;DHT22;63889;50.596;8.690;2024-02-26T08:28:53;6.80;99.90
14170;DHT22;63889;50.596;8.690;2024-02-26T08:31:21;6.90;99.90
14170;DHT22;63889;50.596;8.690;2024-02-26T08:33:46;6.90;99.90
14170;DHT22;63889;50.596;8.690;2024-02-26T08:36:12;6.90;99.90
14170;DHT22;63889;50.596;8.690;2024-02-26T08:38:38;6.90;99.90
14170;DHT22;63889;50.596;8.690;2024-02-26T08:41:13;6.90;99.90
14170;DHT22;63889;50.596;8.690;2024-02-26T08:43:39;7.00;99.90
14170;DHT22;63889;50.596;8.690;2024-02-26T08:46:08;7.00;99.90
14170;DHT22;63889;50.596;8.690;2024-02-26T08:48:34;7.10;99.90
14170;DHT22;63889;50.596;8.690;2024-02-26T08:50:59;7.10;99.90
14170;DHT22;63889;50.596;8.690;2024-02-26T08:53:25;7.10;99.90
14170;DHT22;63889;50.596;8.690;2024-02-26T08:56:03;7.00;99.90
14170;DHT22;63889;50.596;8.690;2024-02-26T08:58:54;7.00;99.90
14170;DHT22;63889;50.596;8.690;2024-02-26T09:01:23;7.00;99.90
14170;DHT22;63889;50.596;8.690;2024-02-26T09:03:48;7.00;99.90
14170;DHT22;63889;50.596;8.690;2024-02-26T09:06:38;7.10;99.90
14170;DHT22;63889;50.596;8.690;2024-02-26T09:09:04;7.10;99.90
14170;DHT22;63889;50.596;8.690;2024-02-26T09:11:29;7.20;99.90
14170;DHT22;63889;50.596;8.690;2024-02-26T09:13:56;7.20;99.90
14170;DHT22;63889;50.596;8.690;2024-02-26T09:16:25;7.20;99.90
14170;DHT22;63889;50.596;8.690;2024-02-26T09:18:52;7.20;99.90
14170;DHT22;63889;50.596;8.690;2024-02-26T09:21:25;7.20;99.90
14170;DHT22;63889;50.596;8.690;2024-02-26T09:23:52;7.20;99.90
14170;DHT22;63889;50.596;8.690;2024-02-26T09:26:25;7.20;99.90
14170;DHT22;63889;50.596;8.690;2024-02-26T09:28:50;7.20;99.90
14170;DHT22;63889;50.596;8.690;2024-02-26T09:31:17;7.30;99.90
14170;DHT22;63889;50.596;8.690;2024-02-26T09:33:43;7.30;99.90
14170;DHT22;63889;50.596;8.690;2024-02-26T09:36:09;7.30;99.90
14170;DHT22;63889;50.596;8.690;2024-02-26T09:38:36;7.30;99.90
14170;DHT22;63889;50.596;8.690;2024-02-26T09:41:04;7.30;99.90
14170;DHT22;63889;50.596;8.690;2024-02-26T09:43:35;7.40;99.90
14170;DHT22;63889;50.596;8.690;2024-02-26T09:46:05;7.30;99.90
14170;DHT22;63889;50.596;8.690;2024-02-26T09:48:32;7.30;99.90
14170;DHT22;63889;50.596;8.690;2024-02-26T09:51:00;7.30;99.90
14170;DHT22;63889;50.596;8.690;2024-02-26T09:53:28;7.30;99.90
14170;DHT22;63889;50.596;8.690;2024-02-26T09:55:54;7.40;99.90
14170;DHT22;63889;50.596;8.690;2024-02-26T09:58:20;7.40;99.90
14170;DHT22;63889;50.596;8.690;2024-02-26T10:00:55;7.40;99.90
14170;DHT22;63889;50.596;8.690;2024-02-26T10:03:30;7.40;99.90
14170;DHT22;63889;50.596;8.690;2024-02-26T10:05:56;7.40;99.90
14170;DHT22;63889;50.596;8.690;2024-02-26T10:08:23;7.50;99.90
14170;DHT22;63889;50.596;8.690;2024-02-26T10:10:49;7.50;99.90
14170;DHT22;63889;50.596;8.690;2024-02-26T10:13:15;7.50;99.90
14170;DHT22;63889;50.596;8.690;2024-02-26T10:15:41;7.50;99.90
14170;DHT22;63889;50.596;8.690;2024-02-26T10:18:06;7.60;99.90
14170;DHT22;63889;50.596;8.690;2024-02-26T10:20:32;7.60;99.90
14170;DHT22;63889;50.596;8.690;2024-02-26T10:23:02;7.60;99.90
14170;DHT22;63889;50.596;8.690;2024-02-26T10:25:28;7.50;99.90
14170;DHT22;63889;50.596;8.690;2024-02-26T10:27:53;7.50;99.90
14170;DHT22;63889;50.596;8.690;2024-02-26T10:30:21;7.60;99.90
14170;DHT22;63889;50.596;8.690;2024-02-26T10:32:48;7.60;99.90
14170;DHT22;63889;50.596;8.690;2024-02-26T10:35:15;7.60;99.90
14170;DHT22;63889;50.596;8.690;2024-02-26T10:37:42;7.60;99.90
14170;DHT22;63889;50.596;8.690;2024-02-26T10:40:14;7.70;99.90
14170;DHT22;63889;50.596;8.690;2024-02-26T10:42:42;7.70;99.90
14170;DHT22;63889;50.596;8.690;2024-02-26T10:45:09;7.70;99.90
14170;DHT22;63889;50.596;8.690;2024-02-26T10:47:36;7.80;99.90
14170;DHT22;63889;50.596;8.690;2024-02-26T10:50:11;7.80;99.90
14170;DHT22;63889;50.596;8.690;2024-02-26T10:52:48;7.90;99.90
14170;DHT22;63889;50.596;8.690;2024-02-26T10:55:16;7.90;99.90
14170;DHT22;63889;50.596;8.690;2024-02-26T10:57:52;8.00;99.90
14170;DHT22;63889;50.596;8.690;2024-02-26T11:00:18;8.00;99.90
14170;DHT22;63889;50.596;8.690;2024-02-26T11:02:45;7.90;99.90
14170;DHT22;63889;50.596;8.690;2024-02-26T11:05:12;8.00;99.90
14170;DHT22;63889;50.596;8.690;2024-02-26T11:07:38;7.90;99.90
14170;DHT22;63889;50.596;8.690;2024-02-26T11:10:19;8.00;99.90
14170;DHT22;63889;50.596;8.690;2024-02-26T11:12:46;8.00;99.90
14170;DHT22;63889;50.596;8.690;2024-02-26T11:15:12;8.00;99.90
14170;DHT22;63889;50.596;8.690;2024-02-26T11:17:38;8.10;99.90
14170;DHT22;63889;50.596;8.690;2024-02-26T11:20:04;8.10;99.90
14170;DHT22;63889;50.596;8.690;2024-02-26T11:22:31;8.10;99.90
14170;DHT22;63889;50.596;8.690;2024-02-26T11:24:57;8.20;99.90
14170;DHT22;63889;50.596;8.690;2024-02-26T11:27:35;8.30;99.90
14170;DHT22;63889;50.596;8.690;2024-02-26T11:30:03;8.40;99.90
14170;DHT22;63889;50.596;8.690;2024-02-26T11:32:30;8.40;99.90
14170;DHT22;63889;50.596;8.690;2024-02-26T11:34:58;8.50;99.90
14170;DHT22;63889;50.596;8.690;2024-02-26T11:37:24;8.60;99.90
14170;DHT22;63889;50.596;8.690;2024-02-26T11:39:51;8.60;99.90
14170;DHT22;63889;50.596;8.690;2024-02-26T11:42:23;8.60;99.90
14170;DHT22;63889;50.596;8.690;2024-02-26T11:44:49;8.70;99.90
14170;DHT22;63889;50.596;8.690;2024-02-26T11:47:18;8.80;99.90
14170;DHT22;63889;50.596;8.690;2024-02-26T11:49:44;8.90;99.90
14170;DHT22;63889;50.596;8.690;2024-02-26T11:52:10;8.90;99.90
14170;DHT22;63889;50.596;8.690;2024-02-26T11:57:27;8.90;99.90
14170;DHT22;63889;50.596;8.690;2024-02-26T12:00:15;9.10;99.90
14170;DHT22;63889;50.596;8.690;2024-02-26T12:02:46;9.00;99.90
14170;DHT22;63889;50.596;8.690;2024-02-26T12:05:15;8.90;99.90
14170;DHT22;63889;50.596;8.690;2024-02-26T12:07:49;9.00;99.90
14170;DHT22;63889;50.596;8.690;2024-02-26T12:10:26;9.00;99.90
14170;DHT22;63889;50.596;8.690;2024-02-26T12:15:23;9.10;99.90
14170;DHT22;63889;50.596;8.690;2024-02-26T12:17:49;9.10;99.90
14170;DHT22;63889;50.596;8.690;2024-02-26T12:20:17;9.20;99.90
14170;DHT22;63889;50.596;8.690;2024-02-26T12:22:45;9.20;99.90
14170;DHT22;63889;50.596;8.690;2024-02-26T12:25:48;9.20;99.90
14170;DHT22;63889;50.596;8.690;2024-02-26T12:28:14;9.30;99.90
14170;DHT22;63889;50.596;8.690;2024-02-26T12:30:40;9.20;99.90
14170;DHT22;63889;50.596;8.690;2024-02-26T12:33:05;9.30;99.90
14170;DHT22;63889;50.596;8.690;2024-02-26T12:35:34;9.30;99.90
14170;DHT22;63889;50.596;8.690;2024-02-26T12:38:00;9.20;99.90
14170;DHT22;63889;50.596;8.690;2024-02-26T12:40:26;9.10;99.90
14170;DHT22;63889;50.596;8.690;2024-02-26T12:42:53;9.20;99.90
14170;DHT22;63889;50.596;8.690;2024-02-26T12:45:20;9.30;99.90
14170;DHT22;63889;50.596;8.690;2024-02-26T12:47:46;9.20;99.90
14170;DHT22;63889;50.596;8.690;2024-02-26T12:50:12;9.20;99.90
14170;DHT22;63889;50.596;8.690;2024-02-26T12:52:40;9.30;99.90
14170;DHT22;63889;50.596;8.690;2024-02-26T12:55:06;9.30;99.90
14170;DHT22;63889;50.596;8.690;2024-02-26T12:57:38;9.30;99.90
14170;DHT22;63889;50.596;8.690;2024-02-26T13:00:38;9.30;99.90
14170;DHT22;63889;50.596;8.690;2024-02-26T13:03:04;9.30;99.90
14170;DHT22;63889;50.596;8.690;2024-02-26T13:05:52;9.30;99.90
14170;DHT22;63889;50.596;8.690;2024-02-26T13:08:19;9.40;99.90
14170;DHT22;63889;50.596;8.690;2024-02-26T13:11:02;9.30;99.90
14170;DHT22;63889;50.596;8.690;2024-02-26T13:13:28;9.40;99.90
14170;DHT22;63889;50.596;8.690;2024-02-26T13:16:10;9.40;99.90
14170;DHT22;63889;50.596;8.690;2024-02-26T13:18:39;9.40;99.90
14170;DHT22;63889;50.596;8.690;2024-02-26T13:21:11;9.40;99.90
14170;DHT22;63889;50.596;8.690;2024-02-26T13:23:39;9.50;99.90
14170;DHT22;63889;50.596;8.690;2024-02-26T13:26:11;9.50;99.90
14170;DHT22;63889;50.596;8.690;2024-02-26T13:28:37;9.50;99.90
14170;DHT22;63889;50.596;8.690;2024-02-26T13:31:03;9.60;99.90
14170;DHT22;63889;50.596;8.690;2024-02-26T13:33:46;9.70;99.90
14170;DHT22;63889;50.596;8.690;2024-02-26T13:36:12;9.70;99.90
14170;DHT22;63889;50.596;8.690;2024-02-26T13:38:40;9.70;99.90
14170;DHT22;63889;50.596;8.690;2024-02-26T13:41:16;9.80;99.90
14170;DHT22;63889;50.596;8.690;2024-02-26T13:43:41;9.80;99.90
14170;DHT22;63889;50.596;8.690;2024-02-26T13:46:26;9.80;99.90
14170;DHT22;63889;50.596;8.690;2024-02-26T13:48:52;9.90;99.90
14170;DHT22;63889;50.596;8.690;2024-02-26T13:51:20;9.90;99.90
14170;DHT22;63889;50.596;8.690;2024-02-26T13:53:45;9.90;99.90
14170;DHT22;63889;50.596;8.690;2024-02-26T13:56:11;9.80;99.90
14170;DHT22;63889;50.596;8.690;2024-02-26T13:58:36;10.00;99.90
14170;DHT22;63889;50.596;8.690;2024-02-26T14:01:02;10.00;99.90
14170;DHT22;63889;50.596;8.690;2024-02-26T14:03:28;10.10;99.90
14170;DHT22;63889;50.596;8.690;2024-02-26T14:05:54;10.20;99.90
14170;DHT22;63889;50.596;8.690;2024-02-26T14:08:20;10.20;99.90
14170;DHT22;63889;50.596;8.690;2024-02-26T14:10:46;10.20;99.90
14170;DHT22;63889;50.596;8.690;2024-02-26T14:13:11;10.30;99.90
14170;DHT22;63889;50.596;8.690;2024-02-26T14:15:37;10.30;99.90
14170;DHT22;63889;50.596;8.690;2024-02-26T14:18:04;10.30;99.90
14170;DHT22;63889;50.596;8.690;2024-02-26T14:20:30;10.40;99.90
14170;DHT22;63889;50.596;8.690;2024-02-26T14:22:55;10.50;99.90
14170;DHT22;63889;50.596;8.690;2024-02-26T14:25:21;10.70;99.90
14170;DHT22;63889;50.596;8.690;2024-02-26T14:27:47;10.70;99.90
14170;DHT22;63889;50.596;8.690;2024-02-26T14:30:13;10.80;99.90
14170;DHT22;63889;50.596;8.690;2024-02-26T14:32:39;10.80;99.90
14170;DHT22;63889;50.596;8.690;2024-02-26T14:35:06;10.80;99.90
14170;DHT22;63889;50.596;8.690;2024-02-26T14:37:32;10.80;99.90
14170;DHT22;63889;50.596;8.690;2024-02-26T14:39:58;10.80;99.90
14170;DHT22;63889;50.596;8.690;2024-02-26T14:42:23;10.80;99.90
14170;DHT22;63889;50.596;8.690;2024-02-26T14:44:50;10.80;99.90
14170;DHT22;63889;50.596;8.690;2024-02-26T14:47:16;10.70;99.90
14170;DHT22;63889;50.596;8.690;2024-02-26T14:49:42;10.70;99.90
14170;DHT22;63889;50.596;8.690;2024-02-26T14:52:08;10.80;99.90
14170;DHT22;63889;50.596;8.690;2024-02-26T14:54:33;10.80;99.90
14170;DHT22;63889;50.596;8.690;2024-02-26T14:57:03;10.80;99.90
14170;DHT22;63889;50.596;8.690;2024-02-26T14:59:30;10.90;99.90
14170;DHT22;63889;50.596;8.690;2024-02-26T15:01:57;10.90;99.90
14170;DHT22;63889;50.596;8.690;2024-02-26T15:04:22;10.90;99.90
14170;DHT22;63889;50.596;8.690;2024-02-26T15:06:48;10.90;99.90
14170;DHT22;63889;50.596;8.690;2024-02-26T15:09:13;10.80;99.90
14170;DHT22;63889;50.596;8.690;2024-02-26T15:11:39;10.80;99.90
14170;DHT22;63889;50.596;8.690;2024-02-26T15:14:06;10.80;99.90
14170;DHT22;63889;50.596;8.690;2024-02-26T15:16:32;10.90;99.90
14170;DHT22;63889;50.596;8.690;2024-02-26T15:18:57;10.90;99.90
14170;DHT22;63889;50.596;8.690;2024-02-26T15:21:23;10.80;99.90
14170;DHT22;63889;50.596;8.690;2024-02-26T15:23:49;10.90;99.90
14170;DHT22;63889;50.596;8.690;2024-02-26T15:26:17;10.90;99.90
14170;DHT22;63889;50.596;8.690;2024-02-26T15:28:42;11.00;99.90
14170;DHT22;63889;50.596;8.690;2024-02-26T15:31:08;11.00;99.90
14170;DHT22;63889;50.596;8.690;2024-02-26T15:33:34;11.10;99.90
14170;DHT22;63889;50.596;8.690;2024-02-26T15:35:59;11.10;99.90
14170;DHT22;63889;50.596;8.690;2024-02-26T15:38:25;11.00;99.90
14170;DHT22;63889;50.596;8.690;2024-02-26T15:40:50;11.00;99.90
14170;DHT22;63889;50.596;8.690;2024-02-26T15:43:16;10.90;99.90
14170;DHT22;63889;50.596;8.690;2024-02-26T15:45:42;11.00;99.90
14170;DHT22;63889;50.596;8.690;2024-02-26T15:48:07;11.00;99.90
14170;DHT22;63889;50.596;8.690;2024-02-26T15:50:33;10.90;99.90